Flight Track Log - Related Links

Times and Time Zones

All times are in EDT time to prevent confusion due to time zone crossing. See the N3746H flight status page for this flight to view local times or setup timezone preferences in your user account.

Time Position Orientation Groundspeed Altitude Reporting Facility
EDT Latitude Longitude Course Direction KTS MPH feet Rate Location/Type
Fri 09:34:55 AM 45.5983 -122.6083 108° East 176 203 800  Level Seattle Center
Fri 09:35:42 AM 45.6114 -122.6461 296° West 182 209 2,100 1,701 Climbing Seattle Center
Fri 09:36:02 AM 45.6231 -122.6878 292° West 229 264 2,700 2,754 Climbing Seattle Center
Fri 09:36:43 AM 45.6461 -122.7419 301° West 218 251 4,900 3,030 Climbing Seattle Center
Fri 09:37:00 AM 45.3806 -122.1346 138° Southeast  Level FlightAware Approximate
Fri 09:37:43 AM 45.6697 -122.8308 291° West 249 287 7,800  Level Seattle Center
Fri 09:38:00 AM 45.2803 -122.0056 138° Southeast  Level FlightAware Approximate
Fri 09:38:44 AM 45.6042 -122.8350 183° South 294 338 10,500  Level Seattle Center
Fri 09:39:00 AM 45.2125 -121.8501 110° East  Level FlightAware Approximate
Fri 09:39:44 AM 45.5525 -122.7186 122° Southeast 343 395 11,900  Level Seattle Center
Fri 09:40:00 AM 45.1691 -121.6683 108° East  Level FlightAware Approximate
Fri 09:40:45 AM 45.5014 -122.5883 119° Southeast 368 423 14,400  Level Seattle Center
Fri 09:41:46 AM 45.4522 -122.4517 117° Southeast 384 442 16,500 1,884 Climbing Seattle Center
Fri 09:42:46 AM 45.4122 -122.3019 111° Southeast 403 464 18,200 1,686 Climbing Seattle Center
Fri 09:43:47 AM 45.3686 -122.1486 112° Southeast 415 478 19,900 1,636 Climbing Seattle Center
Fri 09:44:47 AM 45.3244 -121.9894 111° Southeast 430 495 21,500 1,438 Climbing Seattle Center
Fri 09:45:48 AM 45.2792 -121.8300 112° Southeast 442 509 22,800 1,377 Climbing Seattle Center
Fri 09:46:49 AM 45.2294 -121.6578 112° Southeast 459 528 24,300 1,388 Climbing Seattle Center
Fri 09:47:49 AM 45.1856 -121.4872 110° East 468 539 25,600 1,587 Climbing Seattle Center
Fri 09:48:50 AM 45.1600 -121.3028 101° East 476 548 27,500 1,377 Climbing Seattle Center
Fri 09:49:51 AM 45.1281 -121.1206 104° East 477 549 28,400 595 Climbing Seattle Center
Fri 09:50:51 AM 45.0953 -120.9297 104° East 492 566 28,700 793 Climbing Seattle Center
Fri 09:51:52 AM 45.0614 -120.7317 104° East 513 590 30,000 1,525 Climbing Seattle Center
Fri 09:52:53 AM 45.0264 -120.5358 104° East 515 593 31,800 1,537 Climbing Seattle Center
Fri 09:53:53 AM 44.9928 -120.3464 104° East 503 579 33,100 942 Climbing Seattle Center
Fri 09:54:54 AM 44.9531 -120.1217 104° East 497 572 33,700 393 Climbing Seattle Center
Fri 09:55:55 AM 44.9228 -119.9497 104° East 503 579 33,900 298 Climbing Seattle Center
Fri 09:56:55 AM 44.8853 -119.7447 104° East 521 600 34,300 545 Climbing Seattle Center
Fri 09:57:56 AM 44.8481 -119.5422 104° East 534 615 35,000 341 Climbing Seattle Center
Fri 09:58:58 AM 44.8103 -119.3414 105° East 534 615 35,000  Level Seattle Center
Fri 09:59:58 AM 44.7722 -119.1403 105° East 533 613 35,000  Level Seattle Center
Fri 10:00:59 AM 44.7339 -118.9411 105° East 531 611 35,000  Level Seattle Center
Fri 10:02:00 AM 44.6869 -118.7008 105° East 532 612 35,000  Level Seattle Center
Fri 10:03:01 AM 44.6481 -118.5011 105° East 531 611 35,000  Level Seattle Center
Fri 10:04:01 AM 44.6094 -118.3011 105° East 532 612 35,000  Level Seattle Center
Fri 10:05:06 AM 44.5658 -118.0847 106° East 535 616 35,000  Level Salt Lake Center
Fri 10:06:07 AM 44.5278 -117.8925 105° East 534 615 35,000  Level Salt Lake Center
Fri 10:07:09 AM 44.4825 -117.6708 106° East 530 610 35,000  Level Salt Lake Center
Fri 10:08:10 AM 44.4431 -117.4822 106° East 529 609 35,000  Level Salt Lake Center
Fri 10:09:11 AM 44.4042 -117.2947 106° East 526 605 35,000  Level Salt Lake Center
Fri 10:10:12 AM 44.3586 -117.0769 106° East 524 603 35,000  Level Salt Lake Center
Fri 10:11:13 AM 44.3200 -116.8928 106° East 520 598 35,000  Level Salt Lake Center
Fri 10:12:15 AM 44.2742 -116.6783 107° East 519 597 35,000  Level Salt Lake Center
Fri 10:13:16 AM 44.2350 -116.4947 107° East 519 597 35,000  Level Salt Lake Center
Fri 10:14:17 AM 44.1950 -116.3128 107° East 520 598 35,000  Level Salt Lake Center
Fri 10:15:19 AM 44.1483 -116.1017 107° East 519 597 35,000  Level Salt Lake Center
Fri 10:16:20 AM 44.1094 -115.9208 107° East 514 592 35,000  Level Salt Lake Center
Fri 10:17:21 AM 44.0611 -115.7061 107° East 523 602 35,000  Level Salt Lake Center
Fri 10:18:22 AM 44.0208 -115.5239 107° East 518 596 35,000  Level Salt Lake Center
Fri 10:19:24 AM 43.9722 -115.3111 108° East 518 596 35,000  Level Salt Lake Center
Fri 10:20:25 AM 43.9303 -115.1286 108° East 519 597 35,000  Level Salt Lake Center
Fri 10:21:26 AM 43.8889 -114.9467 107° East 518 596 35,000  Level Salt Lake Center
Fri 10:22:27 AM 43.8389 -114.7342 108° East 520 598 35,000  Level Salt Lake Center
Fri 10:23:29 AM 43.7967 -114.5531 108° East 517 595 35,000  Level Salt Lake Center
Fri 10:24:30 AM 43.7536 -114.3736 108° East 515 593 35,000  Level Salt Lake Center
Fri 10:25:31 AM 43.7047 -114.1653 108° East 512 589 35,000  Level Salt Lake Center
Fri 10:26:33 AM 43.6614 -113.9872 109° East 510 587 35,000  Level Salt Lake Center
Fri 10:27:34 AM 43.6139 -113.7936 109° East 506 582 35,000  Level Salt Lake Center
Fri 10:28:35 AM 43.5717 -113.6189 108° East 503 579 35,000  Level Salt Lake Center
Fri 10:29:37 AM 43.5203 -113.4144 109° East 507 583 35,000  Level Salt Lake Center
Fri 10:30:38 AM 43.4767 -113.2406 109° East 505 581 35,000  Level Salt Lake Center
Fri 10:31:39 AM 43.4261 -113.0372 109° East 503 579 35,000  Level Salt Lake Center
Fri 10:32:41 AM 43.3814 -112.8644 110° East 502 578 35,000  Level Salt Lake Center
Fri 10:33:42 AM 43.3303 -112.6619 109° East 502 578 35,000  Level Salt Lake Center
Fri 10:34:44 AM 43.2858 -112.4883 109° East 503 579 35,000  Level Salt Lake Center
Fri 10:35:45 AM 43.2400 -112.3156 110° East 503 579 35,000  Level Salt Lake Center
Fri 10:36:46 AM 43.1872 -112.1136 110° East 505 581 35,000  Level Salt Lake Center
Fri 10:37:48 AM 43.1433 -111.9411 109° East 504 580 35,000  Level Salt Lake Center
Fri 10:38:49 AM 43.0883 -111.7417 111° Southeast 503 579 35,000  Level Salt Lake Center
Fri 10:39:51 AM 43.0422 -111.5728 110° East 498 573 35,000  Level Salt Lake Center
Fri 10:40:52 AM 42.9964 -111.4019 110° East 501 577 35,000  Level Salt Lake Center
Fri 10:41:54 AM 42.9444 -111.2019 109° East 501 577 35,000  Level Salt Lake Center
Fri 10:42:55 AM 42.8978 -111.0342 111° Southeast 499 574 35,000  Level Salt Lake Center
Fri 10:43:57 AM 42.8456 -110.8342 110° East 502 578 35,000  Level Salt Lake Center
Fri 10:44:58 AM 42.8033 -110.6650 109° East 498 573 35,000  Level Salt Lake Center
Fri 10:46:00 AM 42.7511 -110.4711 110° East 492 566 35,000  Level Salt Lake Center
Fri 10:47:01 AM 42.7081 -110.3011 109° East 494 568 35,000  Level Salt Lake Center
Fri 10:48:03 AM 42.6650 -110.1314 109° East 496 571 35,000  Level Salt Lake Center
Fri 10:49:05 AM 42.6139 -109.9325 109° East 499 574 35,000  Level Salt Lake Center
Fri 10:50:06 AM 42.5689 -109.7631 110° East 499 574 35,000  Level Salt Lake Center
Fri 10:51:08 AM 42.5172 -109.5653 109° East 499 574 35,000  Level Salt Lake Center
Fri 10:52:09 AM 42.4728 -109.3969 110° East 498 573 35,000  Level Salt Lake Center
Fri 10:53:11 AM 42.4272 -109.2292 110° East 497 572 35,000  Level Salt Lake Center
Fri 10:54:13 AM 42.3744 -109.0300 110° East 501 577 35,000  Level Salt Lake Center
Fri 10:55:14 AM 42.3281 -108.8600 110° East 502 578 35,000  Level Salt Lake Center
Fri 10:56:16 AM 42.2747 -108.6608 110° East 503 579 35,000  Level Salt Lake Center
Fri 10:57:18 AM 42.2272 -108.4903 111° Southeast 504 580 35,000  Level Salt Lake Center
Fri 10:58:19 AM 42.1783 -108.3175 111° Southeast 511 588 35,000  Level Salt Lake Center
Fri 10:59:21 AM 42.1253 -108.1228 110° East 499 574 35,000  Level Salt Lake Center
Fri 11:00:23 AM 42.0769 -107.9514 111° Southeast 504 580 35,000  Level Salt Lake Center
Fri 11:01:24 AM 42.0217 -107.7569 111° Southeast 502 578 35,000  Level Salt Lake Center
Fri 11:02:13 AM 41.9822 -107.6183 111° Southeast 496 571 35,000  Level Denver Center
Fri 11:03:15 AM 41.9378 -107.4533 110° East 493 567 35,000  Level Denver Center
Fri 11:04:17 AM 41.8886 -107.2558 108° East 496 571 35,000  Level Denver Center
Fri 11:05:19 AM 41.8453 -107.0886 109° East 496 571 35,000  Level Denver Center
Fri 11:06:21 AM 41.7942 -106.8919 109° East 500 575 35,000  Level Denver Center
Fri 11:07:23 AM 41.7478 -106.7208 110° East 506 582 35,000  Level Denver Center
Fri 11:08:25 AM 41.6947 -106.5228 110° East 506 582 35,000  Level Denver Center
Fri 11:09:27 AM 41.6500 -106.3550 110° East 508 585 35,000  Level Denver Center
Fri 11:10:29 AM 41.5964 -106.1583 110° East 507 583 35,000  Level Denver Center
Fri 11:11:31 AM 41.5511 -105.9917 110° East 503 579 35,000  Level Denver Center
Fri 11:12:33 AM 41.4983 -105.7975 110° East 501 577 35,000  Level Denver Center
Fri 11:13:35 AM 41.4525 -105.6322 110° East 499 574 35,000  Level Denver Center
Fri 11:14:37 AM 41.3989 -105.4386 110° East 500 575 35,000  Level Denver Center
Fri 11:15:39 AM 41.3525 -105.2733 110° East 499 574 35,000  Level Denver Center
Fri 11:16:41 AM 41.3058 -105.1086 111° Southeast 498 573 35,000  Level Denver Center
Fri 11:17:43 AM 41.2519 -104.9181 111° Southeast 497 572 35,000  Level Denver Center
Fri 11:18:45 AM 41.2033 -104.7511 111° Southeast 503 579 35,000  Level Denver Center
Fri 11:19:47 AM 41.1419 -104.5625 113° Southeast 500 575 35,000  Level Denver Center
Fri 11:20:49 AM 41.0881 -104.3997 114° Southeast 503 579 35,000  Level Denver Center
Fri 11:21:51 AM 41.0256 -104.2092 113° Southeast 507 583 35,000  Level Denver Center
Fri 11:22:53 AM 40.9667 -104.0311 114° Southeast 511 588 35,000  Level Denver Center
Fri 11:23:55 AM 40.9092 -103.8589 114° Southeast 508 585 35,000  Level Denver Center
Fri 11:24:57 AM 40.8511 -103.6878 114° Southeast 505 581 35,000  Level Denver Center
Fri 11:25:59 AM 40.7933 -103.5158 114° Southeast 506 582 35,000  Level Denver Center
Fri 11:27:01 AM 40.7361 -103.3447 114° Southeast 504 580 35,000  Level Denver Center
Fri 11:28:04 AM 40.6675 -103.1453 114° Southeast 506 582 35,000  Level Denver Center
Fri 11:29:06 AM 40.6086 -102.9756 115° Southeast 505 581 35,000  Level Denver Center
Fri 11:30:08 AM 40.5494 -102.8042 114° Southeast 508 585 35,000  Level Denver Center
Fri 11:31:10 AM 40.4864 -102.6247 115° Southeast 508 585 35,000  Level Denver Center
Fri 11:32:12 AM 40.4300 -102.4636 115° Southeast 507 583 35,000  Level Denver Center
Fri 11:33:14 AM 40.3731 -102.3017 115° Southeast 510 587 35,000  Level Denver Center
Fri 11:34:16 AM 40.3056 -102.1144 115° Southeast 510 587 35,000  Level Denver Center
Fri 11:35:18 AM 40.2494 -101.9542 115° Southeast 509 586 35,000  Level Denver Center
Fri 11:36:20 AM 40.1819 -101.7683 115° Southeast 508 585 35,000  Level Denver Center
Fri 11:37:22 AM 40.1250 -101.6083 115° Southeast 508 585 35,000  Level Denver Center
Fri 11:38:24 AM 40.0569 -101.4222 115° Southeast 512 589 35,000  Level Denver Center
Fri 11:39:26 AM 39.9989 -101.2647 116° Southeast 507 583 35,000  Level Denver Center
Fri 11:40:28 AM 39.9319 -101.0800 115° Southeast 507 583 35,000  Level Denver Center
Fri 11:41:30 AM 39.8728 -100.9200 116° Southeast 511 588 35,000  Level Denver Center
Fri 11:42:32 AM 39.8042 -100.7375 116° Southeast 507 583 35,000  Level Denver Center
Fri 11:43:34 AM 39.7458 -100.5808 116° Southeast 505 581 35,000  Level Denver Center
Fri 11:44:36 AM 39.6772 -100.3983 116° Southeast 504 580 35,000  Level Denver Center
Fri 11:45:38 AM 39.6178 -100.2417 116° Southeast 505 581 35,000  Level Denver Center
Fri 11:46:40 AM 39.5481 -100.0600 116° Southeast 505 581 35,000  Level Denver Center
Fri 11:47:42 AM 39.4892 -99.9036 116° Southeast 507 583 35,000  Level Denver Center
Fri 11:48:56 AM 39.4175 -99.7203 117° Southeast 511 588 35,000  Level Denver Center
Fri 11:49:59 AM 39.3364 -99.5092 116° Southeast 514 592 35,000  Level Denver Center
Fri 11:51:01 AM 39.2744 -99.3511 117° Southeast 516 594 35,000  Level Denver Center
Fri 11:52:03 AM 39.2014 -99.1653 117° Southeast 520 598 35,000  Level Denver Center
Fri 11:53:05 AM 39.1369 -99.0008 117° Southeast 515 593 35,000  Level Denver Center
Fri 11:54:07 AM 39.0722 -98.8369 117° Southeast 518 596 35,000  Level Denver Center
Fri 11:54:26 AM 39.0483 -98.7792 118° Southeast 518 596 35,000  Level Kansas City Center
Fri 11:55:30 AM 38.9839 -98.6161 117° Southeast 512 589 35,000  Level Kansas City Center
Fri 11:56:31 AM 38.9244 -98.4511 115° Southeast 509 586 35,000  Level Kansas City Center
Fri 11:57:34 AM 38.8653 -98.2853 115° Southeast 509 586 35,000  Level Kansas City Center
Fri 11:58:35 AM 38.8039 -98.1183 115° Southeast 514 592 35,000  Level Kansas City Center
Fri 11:59:37 AM 38.7431 -97.9528 115° Southeast 512 589 35,000  Level Kansas City Center
Fri 12:00:40 PM 38.6819 -97.7875 115° Southeast 512 589 35,000  Level Kansas City Center
Fri 12:01:41 PM 38.6086 -97.5883 115° Southeast 513 590 35,000  Level Kansas City Center
Fri 12:02:45 PM 38.5464 -97.4231 116° Southeast 513 590 35,000  Level Kansas City Center
Fri 12:03:45 PM 38.4850 -97.2575 115° Southeast 512 589 35,000  Level Kansas City Center
Fri 12:04:46 PM 38.4236 -97.0936 116° Southeast 510 587 35,000  Level Kansas City Center
Fri 12:05:50 PM 38.3622 -96.9325 116° Southeast 506 582 35,000  Level Kansas City Center
Fri 12:06:52 PM 38.3006 -96.7711 116° Southeast 506 582 35,000  Level Kansas City Center
Fri 12:07:53 PM 38.2389 -96.6114 116° Southeast 502 578 35,000  Level Kansas City Center
Fri 12:08:56 PM 38.1650 -96.4219 116° Southeast 497 572 35,000  Level Kansas City Center
Fri 12:09:57 PM 38.1036 -96.2608 116° Southeast 504 580 35,000  Level Kansas City Center
Fri 12:11:00 PM 38.0414 -96.1031 117° Southeast 516 594 35,000  Level Kansas City Center
Fri 12:12:01 PM 37.9672 -95.9228 118° Southeast 518 596 35,000  Level Kansas City Center
Fri 12:13:03 PM 37.9008 -95.7806 121° Southeast 517 595 35,000  Level Kansas City Center
Fri 12:14:06 PM 37.8133 -95.5900 120° Southeast 518 596 35,000  Level Kansas City Center
Fri 12:16:00 PM 37.6887 -95.3159 120° Southeast  Level FlightAware Approximate
Fri 12:17:12 PM 37.5947 -95.1183 120° Southeast 515 593 35,000  Level Kansas City Center
Fri 12:18:14 PM 37.5236 -94.9644 120° Southeast 511 588 35,000  Level Kansas City Center
Fri 12:19:17 PM 37.4517 -94.8114 121° Southeast 507 583 35,000  Level Kansas City Center
Fri 12:20:17 PM 37.3789 -94.6561 120° Southeast 510 587 35,000  Level Kansas City Center
Fri 12:21:21 PM 37.3056 -94.5022 121° Southeast 510 587 35,000  Level Kansas City Center
Fri 12:22:22 PM 37.2197 -94.3222 121° Southeast 504 580 35,000  Level Kansas City Center
Fri 12:23:22 PM 37.1483 -94.1711 121° Southeast 501 577 35,000  Level Kansas City Center
Fri 12:24:26 PM 37.0775 -94.0222 121° Southeast 498 573 35,000  Level Kansas City Center
Fri 12:25:27 PM 37.0053 -93.8719 121° Southeast 499 574 35,000  Level Kansas City Center
Fri 12:26:31 PM 36.9375 -93.7317 121° Southeast 500 575 35,000  Level Kansas City Center
Fri 12:27:31 PM 36.8617 -93.5797 122° Southeast 507 583 35,000  Level Kansas City Center
Fri 12:28:35 PM 36.7722 -93.3997 122° Southeast 509 586 35,000  Level Kansas City Center
Fri 12:29:41 PM 36.6886 -93.2239 121° Southeast 504 580 35,000  Level Memphis Center
Fri 12:30:41 PM 36.6147 -93.0739 122° Southeast 504 580 35,000  Level Memphis Center
Fri 12:31:41 PM 36.5547 -92.9556 122° Southeast 504 580 35,000  Level Memphis Center
Fri 12:32:41 PM 36.4767 -92.7958 121° Southeast 504 580 35,000  Level Memphis Center
Fri 12:33:41 PM 36.3983 -92.6439 123° Southeast 511 588 35,000  Level Memphis Center
Fri 12:34:41 PM 36.3239 -92.4922 121° Southeast 511 588 35,000  Level Memphis Center
Fri 12:35:41 PM 36.2450 -92.3386 122° Southeast 516 594 35,000  Level Memphis Center
Fri 12:36:41 PM 36.1872 -92.1725 113° Southeast 521 600 35,000  Level Memphis Center
Fri 12:37:41 PM 36.1231 -91.9836 113° Southeast 521 600 35,000  Level Memphis Center
Fri 12:38:41 PM 36.0708 -91.8131 111° Southeast 527 606 35,000  Level Memphis Center
Fri 12:39:41 PM 36.0228 -91.6428 109° East 527 606 35,000  Level Memphis Center
Fri 12:40:41 PM 35.9661 -91.4753 113° Southeast 527 606 35,000  Level Memphis Center
Fri 12:41:41 PM 35.9172 -91.3106 110° East 520 598 35,000  Level Memphis Center
Fri 12:42:41 PM 35.8642 -91.1486 112° Southeast 515 593 35,000  Level Memphis Center
Fri 12:43:41 PM 35.8131 -90.9894 112° Southeast 508 585 35,000  Level Memphis Center
Fri 12:44:41 PM 35.7617 -90.8278 111° Southeast 503 579 35,000  Level Memphis Center
Fri 12:45:41 PM 35.7119 -90.6717 111° Southeast 498 573 35,000  Level Memphis Center
Fri 12:46:41 PM 35.6747 -90.5308 108° East 493 567 35,000  Level Memphis Center
Fri 12:47:41 PM 35.6228 -90.3725 112° Southeast 493 567 35,000  Level Memphis Center
Fri 12:48:41 PM 35.5725 -90.2167 112° Southeast 488 562 35,000  Level Memphis Center
Fri 12:49:41 PM 35.5200 -90.0586 112° Southeast 495 570 35,000  Level Memphis Center
Fri 12:50:41 PM 35.4633 -89.8828 112° Southeast 495 570 35,000  Level Memphis Center
Fri 12:51:41 PM 35.4083 -89.7228 113° Southeast 495 570 35,000  Level Memphis Center
Fri 12:52:41 PM 35.3572 -89.5628 111° Southeast 495 570 35,000  Level Memphis Center
Fri 12:53:41 PM 35.3042 -89.4081 113° Southeast 495 570 35,000  Level Memphis Center
Fri 12:54:41 PM 35.2528 -89.2511 112° Southeast 495 570 35,000  Level Memphis Center
Fri 12:55:41 PM 35.1992 -89.0967 113° Southeast 500 575 35,000  Level Memphis Center
Fri 12:56:41 PM 35.1497 -88.9578 113° Southeast 495 570 35,000  Level Memphis Center
Fri 12:57:41 PM 35.0997 -88.8014 111° Southeast 495 570 35,000  Level Memphis Center
Fri 12:58:41 PM 35.0433 -88.6450 114° Southeast 495 570 35,000 -550 Level Memphis Center
Fri 12:59:41 PM 34.9869 -88.4839 113° Southeast 484 557 33,900 -1,000 Descending Memphis Center
Fri 01:00:41 PM 34.9344 -88.3331 113° Southeast 477 549 33,000 -450 Descending Memphis Center
Fri 01:01:41 PM 34.8817 -88.1800 113° Southeast 482 555 33,000  Level Memphis Center
Fri 01:02:41 PM 34.8267 -88.0219 113° Southeast 499 574 33,000  Level Memphis Center
Fri 01:03:41 PM 34.7736 -87.8719 113° Southeast 489 563 33,000  Level Memphis Center
Fri 01:04:41 PM 34.7206 -87.7219 113° Southeast 495 570 33,000  Level Memphis Center
Fri 01:05:41 PM 34.6714 -87.5769 112° Southeast 476 548 33,000  Level Memphis Center
Fri 01:07:17 PM 34.6072 -87.3600 110° East 455 524 33,000  Level Atlanta Center
Fri 01:08:17 PM 34.5761 -87.1997 103° East 467 537 33,000  Level Atlanta Center
Fri 01:09:17 PM 34.5444 -87.0397 103° East 477 549 33,000  Level Atlanta Center
Fri 01:10:17 PM 34.5128 -86.8772 103° East 487 560 33,000  Level Atlanta Center
Fri 01:11:17 PM 34.4831 -86.7175 103° East 487 560 33,000  Level Atlanta Center
Fri 01:12:17 PM 34.4511 -86.5553 103° East 492 566 33,000  Level Atlanta Center
Fri 01:13:17 PM 34.4208 -86.3933 103° East 492 566 33,000 -300 Level Atlanta Center
Fri 01:14:17 PM 34.3864 -86.2311 104° East 492 566 32,400 -800 Descending Atlanta Center
Fri 01:15:17 PM 34.3492 -86.0767 106° East 492 566 31,400 -1,450 Descending Atlanta Center
Fri 01:16:17 PM 34.3142 -85.9225 105° East 487 560 29,500 -3,200 Descending Atlanta Center
Fri 01:17:17 PM 34.2747 -85.7708 107° East 476 548 25,000 -3,700 Descending Atlanta Center
Fri 01:18:17 PM 34.2372 -85.6117 106° East 481 554 22,100 -2,750 Descending Atlanta Center
Fri 01:19:17 PM 34.1994 -85.4603 107° East 474 545 19,500 -2,650 Descending Atlanta Center
Fri 01:20:17 PM 34.1614 -85.3142 107° East 462 532 16,800 -2,400 Descending Atlanta Center
Fri 01:21:17 PM 34.1231 -85.1631 107° East 446 513 14,700 -1,400 Descending Atlanta Center
Fri 01:22:17 PM 34.0928 -85.0372 106° East 416 479 14,000 -450 Descending Atlanta Center
Fri 01:23:17 PM 34.0350 -84.9536 130° Southeast 331 381 13,800 -850 Descending Atlanta Center
Fri 01:24:17 PM 33.9750 -84.8781 134° Southeast 325 374 12,300 -900 Descending Atlanta Center
Fri 01:25:17 PM 33.9150 -84.8022 134° Southeast 308 354 12,000 -150 Descending Atlanta Center
Fri 01:26:17 PM 33.8550 -84.7292 135° Southeast 303 349 12,000  Level Atlanta Center
Fri 01:26:40 PM 33.8333 -84.7000 132° Southeast 312 359 12,000  Level Atlanta TRACON
Fri 01:27:34 PM 33.7833 -84.6333 132° Southeast 301 346 12,000 -158 Level Atlanta TRACON
Fri 01:28:34 PM 33.7333 -84.5667 132° Southeast 267 307 11,700 -1,100 Descending Atlanta TRACON
Fri 01:29:34 PM 33.7333 -84.4667 90° East 305 351 9,800 -1,800 Descending Atlanta TRACON
Fri 01:30:34 PM 33.7333 -84.3667 90° East 291 335 8,100 -1,737 Descending Atlanta TRACON
Fri 01:31:28 PM 33.7333 -84.2833 90° East 279 321 6,500 -1,579 Descending Atlanta TRACON
Fri 01:32:28 PM 33.7333 -84.1833 90° East 281 323 5,100 -750 Descending Atlanta TRACON
Fri 01:33:28 PM 33.7333 -84.1000 90° East 270 311 5,000 -53 Descending Atlanta TRACON
Fri 01:34:22 PM 33.7333 -84.0167 90° East 268 308 5,000  Level Atlanta TRACON
Fri 01:35:22 PM 33.6667 -84.0000 168° South 189 217 5,000  Level Atlanta TRACON
Fri 01:36:22 PM 33.6500 -84.0500 248° West 141 162 5,000  Level Atlanta TRACON
Fri 01:37:22 PM 33.6500 -84.1000 270° West 142 163 5,000  Level Atlanta TRACON
Fri 01:38:22 PM 33.6500 -84.1333 270° West 141 162 5,000 -200 Level Atlanta TRACON
Fri 01:39:22 PM 33.6500 -84.1833 270° West 140 161 4,600 -579 Descending Atlanta TRACON
Fri 01:40:16 PM 33.6500 -84.2333 270° West 151 174 3,900 -778 Descending Atlanta TRACON

Login

Don't have an account? Register now (free) for customized features, flight alerts, and more!